Terminal Aerodrome Forecast
Issued by NWS

Home | Current Version | Previous Version | Text Only | Print | Product List | Glossary Off
Versions: 1 2 3 4 5 6 7 8 9 10 11 12 13 14 15 16 17

896
FTUS43 KTOP 211727
TAFFOE
TAF
KFOE 211727Z 2118/2218 12010KT P6SM SCT030 BKN050
     FM212200 11010KT P6SM VCTS BKN050CB
     FM220200 12005KT P6SM BKN050
     FM221600 15012G17KT P6SM SCT050=

USA.gov is the U.S. government's official web portal to all federal, state and local government web resources and services.